Time;durP1;ratioP1;P1;durP2;ratioP2;P2;SDS_P1;SDS_P2;PMS_P1;PMS_P2;Temp;Humidity;BMP_temperature;BMP_pressure;BME280_temperature;BME280_humidity;BME280_pressure;Samples;Min_cycle;Max_cycle;Signal;HPM_P1;HPM_P2
2023/01/31 00:01:14;;;;;;;;;;;;;;;5.14;61.43;98719.97;4485055;31;34106;-77
2023/01/31 00:03:42;;;;;;;;;;;;;;;6.01;58.50;98705.91;4484701;31;33223;-78
2023/01/31 00:06:13;;;;;;;;;;;;;;;5.69;59.37;98711.13;4485053;31;33728;-78
2023/01/31 00:08:40;;;;;;;;;;;;;;;4.75;61.42;98709.47;4484607;32;33649;-79
2023/01/31 00:11:08;;;;;;;;;;;;;;;5.14;60.65;98707.13;4485454;31;34234;-79
2023/01/31 00:13:36;;;;;;;;;;;;;;;5.44;59.16;98691.63;4500281;31;33591;-78
2023/01/31 00:16:03;;;;;;;;;;;;;;;5.77;57.94;98696.75;4489871;31;34388;-80
2023/01/31 00:18:31;;;;;;;;;;;;;;;5.57;58.30;98688.56;4497203;31;34449;-80
2023/01/31 00:21:02;;;;;;;;;;;;;;;5.62;58.09;98691.22;4491098;31;34663;-80
2023/01/31 00:23:29;;;;;;;;;;;;;;;5.72;58.08;98698.34;4498256;31;34186;-80
2023/01/31 00:26:05;;;;;;;;;;;;;;;5.66;58.37;98693.03;4498229;31;34842;-80
2023/01/31 00:28:33;;;;;;;;;;;;;;;5.56;58.30;98696.22;4498834;31;34297;-78
2023/01/31 00:31:01;;;;;;;;;;;;;;;5.68;58.21;98716.22;4494017;31;34437;-80
2023/01/31 00:33:28;;;;;;;;;;;;;;;5.71;58.19;98713.72;4491420;31;33296;-79
2023/01/31 00:35:55;;;;;;;;;;;;;;;5.40;58.41;98714.66;4484398;31;34153;-79
2023/01/31 00:38:22;;;;;;;;;;;;;;;6.29;56.02;98723.75;4476787;31;34522;-80
2023/01/31 00:40:51;;;;;;;;;;;;;;;6.03;56.85;98728.28;4489670;31;33823;-80
2023/01/31 00:43:19;;;;;;;;;;;;;;;5.30;58.27;98716.09;4484857;31;32947;-80
2023/01/31 00:45:46;;;;;;;;;;;;;;;5.69;57.25;98716.28;4499538;31;33692;-80
2023/01/31 00:48:14;;;;;;;;;;;;;;;5.80;56.76;98716.53;4491691;31;35266;-79
2023/01/31 00:50:41;;;;;;;;;;;;;;;5.81;56.64;98720.84;4479745;31;33840;-79
2023/01/31 00:53:10;;;;;;;;;;;;;;;5.60;56.78;98710.88;4493918;31;34114;-78
2023/01/31 00:55:37;;;;;;;;;;;;;;;5.20;57.98;98716.72;4485953;31;32925;-80
2023/01/31 00:58:05;;;;;;;;;;;;;;;5.51;57.04;98710.66;4498519;31;34290;-80
2023/01/31 01:00:32;;;;;;;;;;;;;;;5.65;56.83;98721.31;4481615;31;35111;-80
2023/01/31 01:03:01;;;;;;;;;;;;;;;6.01;55.37;98717.06;4498583;31;32890;-80
2023/01/31 01:05:28;;;;;;;;;;;;;;;5.33;57.23;98713.63;4497408;31;34255;-79
2023/01/31 01:07:56;;;;;;;;;;;;;;;5.43;56.99;98719.87;4493921;31;35149;-79
2023/01/31 01:10:23;;;;;;;;;;;;;;;5.13;57.15;98715.66;4483675;31;34940;-78
2023/01/31 01:12:50;;;;;;;;;;;;;;;5.28;56.94;98721.22;4483690;31;33585;-80
2023/01/31 01:15:18;;;;;;;;;;;;;;;5.11;57.31;98714.75;4492190;31;34255;-79
2023/01/31 01:17:46;;;;;;;;;;;;;;;5.25;56.92;98717.69;4497995;31;34101;-80
2023/01/31 01:20:13;;;;;;;;;;;;;;;5.70;55.71;98710.28;4497854;31;33705;-79
2023/01/31 01:22:41;;;;;;;;;;;;;;;5.65;55.56;98704.16;4490266;31;33383;-80
2023/01/31 01:25:08;;;;;;;;;;;;;;;5.00;57.48;98704.19;4494223;31;35069;-79
2023/01/31 01:27:36;;;;;;;;;;;;;;;4.98;57.35;98721.25;4486559;31;34055;-80
2023/01/31 01:30:04;;;;;;;;;;;;;;;5.19;56.43;98704.66;4487239;31;33692;-78
2023/01/31 01:32:31;;;;;;;;;;;;;;;4.71;57.99;98723.91;4478345;31;32863;-79
2023/01/31 01:34:58;;;;;;;;;;;;;;;5.42;56.31;98710.41;4492471;31;34973;-79
2023/01/31 01:37:25;;;;;;;;;;;;;;;5.07;57.07;98710.34;4482247;31;34070;-79
2023/01/31 01:39:53;;;;;;;;;;;;;;;4.86;57.32;98724.34;4493023;31;34207;-80
2023/01/31 01:42:23;;;;;;;;;;;;;;;5.16;57.14;98718.31;4478866;31;31535;-80
2023/01/31 01:44:55;;;;;;;;;;;;;;;5.15;56.92;98731.97;4498280;31;34917;-79
2023/01/31 01:47:26;;;;;;;;;;;;;;;5.14;56.43;98735.37;4498850;31;34074;-79
2023/01/31 01:49:56;;;;;;;;;;;;;;;5.31;55.78;98734.16;4492691;31;34435;-79
2023/01/31 01:52:23;;;;;;;;;;;;;;;5.43;55.25;98755.88;4492075;31;33844;-78
2023/01/31 01:55:11;;;;;;;;;;;;;;;5.20;56.22;98758.69;4495756;31;34060;-80
2023/01/31 01:57:39;;;;;;;;;;;;;;;5.68;54.99;98763.38;4483820;31;32737;-79
2023/01/31 02:00:07;;;;;;;;;;;;;;;5.81;54.64;98744.84;4493456;31;35132;-79
2023/01/31 02:02:41;;;;;;;;;;;;;;;5.13;56.36;98759.34;4479195;31;33524;-78
2023/01/31 02:05:08;;;;;;;;;;;;;;;5.16;56.16;98750.87;4491274;31;34520;-78
2023/01/31 02:07:36;;;;;;;;;;;;;;;4.69;57.85;98755.50;4490303;31;34597;-79
2023/01/31 02:10:03;;;;;;;;;;;;;;;4.91;57.29;98757.88;4466760;31;32700;-78
2023/01/31 02:12:31;;;;;;;;;;;;;;;5.05;56.97;98765.97;4483676;31;33430;-79
2023/01/31 02:14:58;;;;;;;;;;;;;;;5.07;56.63;98765.16;4482469;31;33863;-79
2023/01/31 02:17:25;;;;;;;;;;;;;;;5.29;55.82;98753.78;4498021;31;35373;-80
2023/01/31 02:20:11;;;;;;;;;;;;;;;5.34;55.72;98770.22;4497247;31;35018;-79
2023/01/31 02:22:59;;;;;;;;;;;;;;;5.50;55.20;98773.22;4488449;31;33216;-79
2023/01/31 02:25:47;;;;;;;;;;;;;;;5.01;56.36;98787.28;4496366;31;33905;-79
2023/01/31 02:28:34;;;;;;;;;;;;;;;5.18;56.19;98790.31;4485309;31;34166;-79
2023/01/31 02:31:02;;;;;;;;;;;;;;;5.13;56.11;98793.62;4489655;31;34442;-80
2023/01/31 02:33:48;;;;;;;;;;;;;;;5.10;56.30;98793.53;4495142;31;33124;-77
2023/01/31 02:36:26;;;;;;;;;;;;;;;5.42;55.68;98795.25;4478723;31;33973;-80
2023/01/31 02:39:00;;;;;;;;;;;;;;;5.36;55.58;98803.66;4489186;31;34298;-80
2023/01/31 02:41:39;;;;;;;;;;;;;;;5.34;55.72;98802.75;4490150;31;34210;-79
2023/01/31 02:47:12;;;;;;;;;;;;;;;6.27;52.96;98805.19;4487141;31;34831;-80
2023/01/31 02:49:46;;;;;;;;;;;;;;;7.08;50.51;98821.59;4496532;31;34148;-79
2023/01/31 02:52:17;;;;;;;;;;;;;;;7.05;50.54;98830.16;4479174;31;34130;-78
2023/01/31 02:57:33;;;;;;;;;;;;;;;6.58;52.25;98829.09;4478152;31;34680;-80
2023/01/31 03:00:00;;;;;;;;;;;;;;;6.23;52.49;98831.69;4491237;31;35192;-79
2023/01/31 03:02:28;;;;;;;;;;;;;;;6.60;52.06;98842.87;4463746;32;37118;-79
2023/01/31 03:04:55;;;;;;;;;;;;;;;6.41;52.25;98833.00;4475711;31;33510;-79
2023/01/31 03:07:25;;;;;;;;;;;;;;;5.59;54.29;98848.00;4479006;31;33989;-79
2023/01/31 03:09:59;;;;;;;;;;;;;;;5.88;53.66;98847.94;4497342;31;34528;-79
2023/01/31 03:12:30;;;;;;;;;;;;;;;6.35;52.69;98844.00;4477225;31;33972;-79
2023/01/31 03:15:00;;;;;;;;;;;;;;;6.24;52.50;98840.28;4482909;31;33400;-80
2023/01/31 03:17:36;;;;;;;;;;;;;;;5.86;53.71;98855.59;4477599;32;33704;-79
2023/01/31 03:20:03;;;;;;;;;;;;;;;6.39;52.36;98850.97;4468464;31;34189;-78
2023/01/31 03:22:32;;;;;;;;;;;;;;;6.45;51.98;98845.97;4490574;31;34254;-80
2023/01/31 03:24:59;;;;;;;;;;;;;;;6.27;52.39;98869.56;4481761;31;33395;-77
2023/01/31 03:27:27;;;;;;;;;;;;;;;5.89;53.25;98852.22;4483374;31;33728;-80
2023/01/31 03:29:57;;;;;;;;;;;;;;;5.98;52.92;98860.22;4491729;31;34103;-79
2023/01/31 03:32:27;;;;;;;;;;;;;;;6.46;51.80;98867.44;4474415;31;35217;-79
2023/01/31 03:34:55;;;;;;;;;;;;;;;5.81;53.90;98863.19;4479652;31;33891;-80
2023/01/31 03:37:30;;;;;;;;;;;;;;;5.81;53.75;98868.34;4490993;31;35013;-80
2023/01/31 03:39:59;;;;;;;;;;;;;;;6.34;52.38;98866.31;4479550;31;35143;-79
2023/01/31 03:42:31;;;;;;;;;;;;;;;6.47;51.88;98861.44;4493507;31;34170;-78
2023/01/31 03:45:08;;;;;;;;;;;;;;;5.64;54.14;98863.56;4470557;31;33295;-78
2023/01/31 03:47:37;;;;;;;;;;;;;;;5.81;53.86;98878.63;4493323;31;33309;-80
2023/01/31 03:50:12;;;;;;;;;;;;;;;6.01;53.46;98873.16;4496836;31;34203;-77
2023/01/31 03:52:42;;;;;;;;;;;;;;;6.09;52.71;98874.22;4475061;31;33574;-79
2023/01/31 03:55:14;;;;;;;;;;;;;;;5.38;54.97;98876.56;4473753;31;34342;-79
2023/01/31 03:57:41;;;;;;;;;;;;;;;5.29;54.93;98861.75;4490531;31;34344;-80
2023/01/31 04:00:12;;;;;;;;;;;;;;;6.21;52.66;98866.84;4492263;31;34504;-78
2023/01/31 04:02:41;;;;;;;;;;;;;;;6.55;51.74;98862.50;4483350;31;34394;-78
2023/01/31 04:05:12;;;;;;;;;;;;;;;6.04;52.91;98875.81;4497747;31;33033;-79
2023/01/31 04:07:41;;;;;;;;;;;;;;;5.99;53.12;98898.00;4476915;32;33928;-79
2023/01/31 04:10:14;;;;;;;;;;;;;;;5.68;54.02;98891.09;4477686;31;33911;-78
2023/01/31 04:12:41;;;;;;;;;;;;;;;5.61;54.67;98885.81;4494606;31;34324;-80
2023/01/31 04:15:09;;;;;;;;;;;;;;;5.09;56.19;98891.13;4495856;31;34238;-79
2023/01/31 04:17:37;;;;;;;;;;;;;;;6.08;54.06;98905.94;4483144;31;34078;-79
2023/01/31 04:20:05;;;;;;;;;;;;;;;6.36;53.22;98896.34;4494437;31;34078;-79
2023/01/31 04:22:32;;;;;;;;;;;;;;;6.69;52.47;98888.59;4497038;31;34704;-79
2023/01/31 04:25:00;;;;;;;;;;;;;;;5.04;57.07;98905.56;4482733;31;33666;-76
2023/01/31 04:27:27;;;;;;;;;;;;;;;5.66;55.58;98913.34;4486572;31;34184;-79
2023/01/31 04:29:55;;;;;;;;;;;;;;;5.75;55.06;98911.87;4482075;32;34166;-79
2023/01/31 04:32:22;;;;;;;;;;;;;;;5.71;55.47;98907.50;4481889;32;34210;-79
2023/01/31 04:34:49;;;;;;;;;;;;;;;6.05;54.62;98924.75;4482137;32;34023;-78
2023/01/31 04:37:17;;;;;;;;;;;;;;;5.78;55.36;98919.69;4485011;31;35214;-80
2023/01/31 04:39:44;;;;;;;;;;;;;;;5.96;55.21;98932.22;4491050;31;35772;-80
2023/01/31 04:42:11;;;;;;;;;;;;;;;4.99;57.97;98931.06;4482016;32;34177;-80
2023/01/31 04:44:38;;;;;;;;;;;;;;;5.23;57.37;98927.53;4481601;31;33896;-79
2023/01/31 04:47:05;;;;;;;;;;;;;;;5.05;58.31;98940.69;4484624;31;34071;-79
2023/01/31 04:49:33;;;;;;;;;;;;;;;5.73;56.00;98936.72;4493751;31;34221;-80
2023/01/31 04:52:01;;;;;;;;;;;;;;;4.78;59.08;98933.00;4485856;31;33857;-79
2023/01/31 04:54:28;;;;;;;;;;;;;;;4.63;61.00;98959.03;4486951;31;33009;-80
2023/01/31 04:56:55;;;;;;;;;;;;;;;4.54;62.53;98948.44;4494981;31;34866;-80
2023/01/31 04:59:22;;;;;;;;;;;;;;;5.05;61.99;98948.41;4489607;31;35329;-78
2023/01/31 05:01:50;;;;;;;;;;;;;;;4.70;63.71;98940.44;4490604;31;33847;-80
2023/01/31 05:04:17;;;;;;;;;;;;;;;5.19;62.76;98946.22;4494725;31;33772;-80
2023/01/31 05:06:44;;;;;;;;;;;;;;;5.23;62.31;98940.38;4496108;31;34664;-79
2023/01/31 05:09:12;;;;;;;;;;;;;;;5.16;63.25;98941.03;4498924;31;33838;-79
2023/01/31 05:11:39;;;;;;;;;;;;;;;5.44;61.75;98941.00;4494702;31;34407;-78
2023/01/31 05:14:06;;;;;;;;;;;;;;;5.52;61.97;98951.50;4492075;31;33545;-77
2023/01/31 05:16:34;;;;;;;;;;;;;;;4.77;64.33;98955.25;4494608;31;34870;-78
2023/01/31 05:19:01;;;;;;;;;;;;;;;5.49;62.05;98961.69;4487086;31;35166;-79
2023/01/31 05:21:29;;;;;;;;;;;;;;;5.13;63.02;98959.78;4493008;31;33859;-80
2023/01/31 05:23:56;;;;;;;;;;;;;;;5.48;62.05;98965.97;4483622;31;32168;-79
2023/01/31 05:26:23;;;;;;;;;;;;;;;5.71;61.37;98968.34;4493538;31;33897;-78
2023/01/31 05:28:50;;;;;;;;;;;;;;;5.85;60.14;98972.19;4493420;31;34077;-80
2023/01/31 05:31:18;;;;;;;;;;;;;;;6.29;58.86;98980.31;4486765;31;34182;-80
2023/01/31 05:33:45;;;;;;;;;;;;;;;5.70;60.60;98972.63;4488802;31;33480;-78
2023/01/31 05:36:13;;;;;;;;;;;;;;;5.76;60.20;98966.81;4498124;31;34643;-77
2023/01/31 05:38:40;;;;;;;;;;;;;;;5.94;59.76;98964.75;4472508;32;33665;-79
2023/01/31 05:41:07;;;;;;;;;;;;;;;5.89;58.95;98973.16;4489213;31;34655;-79
2023/01/31 05:43:35;;;;;;;;;;;;;;;5.74;58.92;98976.16;4490160;31;33943;-77
2023/01/31 05:46:03;;;;;;;;;;;;;;;5.91;58.46;98981.78;4475239;31;35381;-78
2023/01/31 05:48:30;;;;;;;;;;;;;;;5.89;58.56;98984.31;4490659;31;34442;-78
2023/01/31 05:50:58;;;;;;;;;;;;;;;5.73;59.09;98992.44;4487919;31;34966;-79
2023/01/31 05:53:26;;;;;;;;;;;;;;;6.53;56.50;99001.53;4499133;31;34572;-80
2023/01/31 05:55:53;;;;;;;;;;;;;;;6.30;55.73;99008.66;4498712;31;33395;-81
2023/01/31 05:58:21;;;;;;;;;;;;;;;6.68;55.03;99008.78;4490762;31;33875;-81
2023/01/31 06:00:48;;;;;;;;;;;;;;;7.70;52.34;99005.19;4483679;32;33906;-81
2023/01/31 06:03:16;;;;;;;;;;;;;;;7.59;52.27;99005.78;4484361;31;33278;-80
2023/01/31 06:05:43;;;;;;;;;;;;;;;7.72;51.60;99002.63;4486238;31;33567;-82
2023/01/31 06:08:10;;;;;;;;;;;;;;;7.79;51.17;99002.78;4497874;31;34228;-81
2023/01/31 06:10:37;;;;;;;;;;;;;;;7.92;50.54;98998.78;4483922;31;34138;-81
2023/01/31 06:13:06;;;;;;;;;;;;;;;7.51;50.11;98998.75;4499528;31;32874;-82
2023/01/31 06:15:33;;;;;;;;;;;;;;;7.96;49.44;99010.91;4488127;31;34979;-80
2023/01/31 06:18:01;;;;;;;;;;;;;;;6.92;52.23;99008.53;4483432;32;34232;-80
2023/01/31 06:20:28;;;;;;;;;;;;;;;7.48;50.10;99010.72;4486149;31;34584;-78
2023/01/31 06:22:55;;;;;;;;;;;;;;;6.38;52.81;99026.03;4481928;31;33954;-80
2023/01/31 06:25:23;;;;;;;;;;;;;;;5.80;53.82;99031.25;4499121;31;34283;-81
2023/01/31 06:27:50;;;;;;;;;;;;;;;6.43;52.50;99038.16;4486571;31;35200;-80
2023/01/31 06:30:17;;;;;;;;;;;;;;;6.77;51.66;99042.50;4487464;31;34104;-81
2023/01/31 06:32:45;;;;;;;;;;;;;;;6.68;51.46;99044.84;4499142;31;33470;-81
2023/01/31 06:35:12;;;;;;;;;;;;;;;7.12;50.69;99039.94;4499238;31;34635;-79
2023/01/31 06:37:40;;;;;;;;;;;;;;;5.61;53.48;99054.66;4499152;31;34284;-81
2023/01/31 06:40:07;;;;;;;;;;;;;;;5.78;53.48;99053.47;4496105;31;34397;-82
2023/01/31 06:42:34;;;;;;;;;;;;;;;6.27;52.75;99065.22;4499033;31;33360;-80
2023/01/31 06:45:02;;;;;;;;;;;;;;;6.06;52.94;99059.44;4499411;31;33861;-81
2023/01/31 06:47:30;;;;;;;;;;;;;;;6.27;53.02;99064.34;4496203;31;34251;-81
2023/01/31 06:49:57;;;;;;;;;;;;;;;6.45;51.62;99069.13;4498794;31;33815;-82
2023/01/31 06:52:24;;;;;;;;;;;;;;;5.54;53.61;99076.75;4484831;31;34062;-81
2023/01/31 06:54:51;;;;;;;;;;;;;;;6.18;52.40;99082.97;4499288;31;33941;-81
2023/01/31 06:57:19;;;;;;;;;;;;;;;6.52;51.52;99089.06;4496677;31;33971;-81
2023/01/31 06:59:46;;;;;;;;;;;;;;;6.29;51.81;99084.16;4483390;32;33537;-81
2023/01/31 07:02:13;;;;;;;;;;;;;;;7.60;48.50;99090.94;4483617;31;33380;-81
2023/01/31 07:04:41;;;;;;;;;;;;;;;6.68;50.75;99093.81;4487010;31;33620;-81
2023/01/31 07:07:09;;;;;;;;;;;;;;;7.26;49.39;99084.97;4484877;31;36598;-81
2023/01/31 07:09:36;;;;;;;;;;;;;;;7.12;49.46;99096.66;4492704;31;34975;-81
2023/01/31 07:12:03;;;;;;;;;;;;;;;6.63;50.72;99097.06;4485957;31;33557;-80
2023/01/31 07:14:31;;;;;;;;;;;;;;;5.82;52.92;99093.87;4497039;31;34169;-79
2023/01/31 07:16:58;;;;;;;;;;;;;;;5.82;53.61;99101.59;4498740;31;34107;-78
2023/01/31 07:19:25;;;;;;;;;;;;;;;6.18;52.73;99108.72;4491508;31;35080;-79
2023/01/31 07:21:53;;;;;;;;;;;;;;;6.44;52.06;99108.56;4494098;31;33283;-79
2023/01/31 07:24:20;;;;;;;;;;;;;;;6.80;50.67;99104.44;4483019;31;34318;-81
2023/01/31 07:26:47;;;;;;;;;;;;;;;6.30;52.17;99105.62;4482789;32;34055;-81
2023/01/31 07:29:14;;;;;;;;;;;;;;;6.38;52.12;99111.00;4468628;32;33748;-80
2023/01/31 07:31:42;;;;;;;;;;;;;;;6.19;52.44;99112.16;4468852;32;33143;-81
2023/01/31 07:34:09;;;;;;;;;;;;;;;6.05;52.96;99111.75;4483727;31;33704;-80
2023/01/31 07:36:36;;;;;;;;;;;;;;;6.08;52.71;99115.28;4494506;31;34064;-80
2023/01/31 07:39:05;;;;;;;;;;;;;;;6.17;53.01;99124.09;4498541;31;34933;-80
2023/01/31 07:41:32;;;;;;;;;;;;;;;6.69;50.89;99125.59;4493653;31;33644;-80
2023/01/31 07:44:01;;;;;;;;;;;;;;;5.92;52.84;99135.34;4493182;31;33089;-78
2023/01/31 07:46:29;;;;;;;;;;;;;;;6.44;51.86;99134.31;4482883;32;35221;-80
2023/01/31 07:48:56;;;;;;;;;;;;;;;6.21;52.06;99131.09;4482916;31;33990;-80
2023/01/31 07:51:23;;;;;;;;;;;;;;;5.89;52.92;99137.81;4483611;31;32060;-80
2023/01/31 07:53:50;;;;;;;;;;;;;;;6.38;51.71;99149.63;4482478;32;34317;-81
2023/01/31 07:56:19;;;;;;;;;;;;;;;6.06;52.53;99137.53;4491562;31;33960;-81
2023/01/31 07:58:46;;;;;;;;;;;;;;;7.36;49.55;99137.69;4479447;31;34600;-79
2023/01/31 08:04:01;;;;;;;;;;;;;;;6.66;50.33;99141.81;4475073;32;34306;-81
2023/01/31 08:06:47;;;;;;;;;;;;;;;6.89;50.26;99149.31;4479201;31;35714;-81
2023/01/31 08:09:15;;;;;;;;;;;;;;;6.59;51.56;99160.50;4482475;32;34323;-80
2023/01/31 08:11:42;;;;;;;;;;;;;;;5.72;53.82;99163.91;4482469;31;33273;-80
2023/01/31 08:14:09;;;;;;;;;;;;;;;6.58;51.89;99153.63;4487308;31;34192;-82
2023/01/31 08:16:37;;;;;;;;;;;;;;;7.18;49.84;99161.28;4487538;31;34274;-79
2023/01/31 08:19:04;;;;;;;;;;;;;;;6.15;52.48;99162.69;4489451;31;34374;-79
2023/01/31 08:21:31;;;;;;;;;;;;;;;6.47;51.95;99160.16;4483757;31;34048;-80
2023/01/31 08:23:59;;;;;;;;;;;;;;;6.93;50.63;99174.34;4490755;31;33921;-81
2023/01/31 08:26:26;;;;;;;;;;;;;;;7.46;48.78;99180.03;4498643;31;34056;-82
2023/01/31 08:28:53;;;;;;;;;;;;;;;7.12;49.95;99186.00;4490050;31;35004;-80
2023/01/31 08:31:22;;;;;;;;;;;;;;;6.17;52.89;99199.63;4487048;31;33198;-81
2023/01/31 08:33:51;;;;;;;;;;;;;;;6.74;51.15;99202.19;4476095;31;33861;-79
2023/01/31 08:36:22;;;;;;;;;;;;;;;6.47;51.14;99206.53;4485414;31;33663;-81
2023/01/31 08:38:50;;;;;;;;;;;;;;;6.65;51.43;99207.06;4484145;32;34197;-80
2023/01/31 08:41:18;;;;;;;;;;;;;;;5.90;53.18;99221.88;4484385;32;33550;-81
2023/01/31 08:43:45;;;;;;;;;;;;;;;7.03;50.39;99222.75;4482978;32;34201;-80
2023/01/31 08:46:23;;;;;;;;;;;;;;;6.41;52.34;99220.09;4497106;31;33843;-81
2023/01/31 08:48:50;;;;;;;;;;;;;;;6.66;52.40;99228.53;4499960;31;33671;-81
2023/01/31 08:51:18;;;;;;;;;;;;;;;6.94;51.79;99241.41;4499855;31;34201;-82
2023/01/31 08:53:45;;;;;;;;;;;;;;;6.99;51.92;99236.38;4492582;31;34036;-81
2023/01/31 08:56:13;;;;;;;;;;;;;;;7.44;50.61;99249.66;4484371;32;33704;-82
2023/01/31 08:58:41;;;;;;;;;;;;;;;6.53;53.40;99242.78;4471876;31;34222;-81
2023/01/31 09:01:09;;;;;;;;;;;;;;;7.51;50.88;99248.09;4476758;31;33490;-77
2023/01/31 09:03:36;;;;;;;;;;;;;;;7.74;50.51;99264.19;4482319;32;33782;-80
2023/01/31 09:06:05;;;;;;;;;;;;;;;6.98;52.74;99257.84;4487059;31;34400;-82
2023/01/31 09:08:33;;;;;;;;;;;;;;;7.52;51.39;99245.56;4477337;32;32681;-80
2023/01/31 09:11:00;;;;;;;;;;;;;;;6.68;52.90;99256.09;4483462;31;33953;-80
2023/01/31 09:13:28;;;;;;;;;;;;;;;6.89;52.37;99257.56;4483903;32;35094;-82
2023/01/31 09:16:00;;;;;;;;;;;;;;;7.45;51.20;99250.50;4490924;31;34406;-80
2023/01/31 09:18:27;;;;;;;;;;;;;;;7.17;52.09;99254.94;4469648;32;34065;-82
2023/01/31 09:20:54;;;;;;;;;;;;;;;6.97;52.02;99250.91;4483766;32;34335;-80
2023/01/31 09:23:22;;;;;;;;;;;;;;;6.71;53.07;99245.91;4469241;32;34901;-79
2023/01/31 09:25:55;;;;;;;;;;;;;;;6.98;53.13;99242.38;4494141;31;34202;-82
2023/01/31 09:28:23;;;;;;;;;;;;;;;6.68;53.90;99248.38;4485349;31;33627;-81
2023/01/31 09:30:52;;;;;;;;;;;;;;;6.48;53.84;99265.81;4499425;31;33890;-80
2023/01/31 09:33:20;;;;;;;;;;;;;;;6.60;53.76;99254.16;4499006;31;35056;-80
2023/01/31 09:35:54;;;;;;;;;;;;;;;6.42;54.21;99257.03;4499437;31;34942;-81
2023/01/31 09:38:22;;;;;;;;;;;;;;;6.83;52.42;99266.88;4471126;32;35039;-81
2023/01/31 09:40:50;;;;;;;;;;;;;;;6.29;53.49;99261.81;4483637;32;33424;-82
2023/01/31 09:43:18;;;;;;;;;;;;;;;7.11;51.72;99254.75;4483618;32;34874;-80
2023/01/31 09:45:45;;;;;;;;;;;;;;;6.76;52.61;99246.91;4483779;32;33695;-81
2023/01/31 09:48:14;;;;;;;;;;;;;;;6.15;54.01;99270.78;4471449;31;33615;-81
2023/01/31 09:50:42;;;;;;;;;;;;;;;6.47;53.47;99258.91;4484692;31;33627;-81
2023/01/31 09:53:13;;;;;;;;;;;;;;;6.66;53.12;99264.59;4485107;31;33880;-80
2023/01/31 09:56:07;;;;;;;;;;;;;;;6.76;52.11;99254.63;4485199;31;34159;-80
2023/01/31 09:58:47;;;;;;;;;;;;;;;6.68;51.71;99261.25;4475449;31;34492;-81
2023/01/31 10:01:17;;;;;;;;;;;;;;;7.12;50.87;99251.34;4474942;31;34123;-80
2023/01/31 10:04:04;;;;;;;;;;;;;;;7.28;50.09;99250.06;4469472;32;34140;-81
2023/01/31 10:06:34;;;;;;;;;;;;;;;7.48;49.79;99248.88;4469108;32;34426;-82
2023/01/31 10:09:06;;;;;;;;;;;;;;;7.05;49.54;99255.47;4487760;31;34559;-80
2023/01/31 10:11:33;;;;;;;;;;;;;;;6.61;50.29;99250.72;4465112;31;33873;-80
2023/01/31 10:14:22;;;;;;;;;;;;;;;6.95;49.71;99242.28;4492063;31;34254;-80
2023/01/31 10:17:06;;;;;;;;;;;;;;;7.20;49.95;99255.03;4496766;31;35386;-81
2023/01/31 10:19:43;;;;;;;;;;;;;;;7.60;48.21;99245.75;4485122;31;34823;-82
2023/01/31 10:22:12;;;;;;;;;;;;;;;7.10;48.29;99250.44;4499330;31;34265;-82
2023/01/31 10:24:42;;;;;;;;;;;;;;;7.04;47.56;99243.38;4499735;31;34951;-83
2023/01/31 10:27:28;;;;;;;;;;;;;;;6.98;48.40;99245.81;4481272;32;33862;-82
2023/01/31 10:29:56;;;;;;;;;;;;;;;7.52;47.44;99248.13;4481961;31;34841;-80
2023/01/31 10:32:25;;;;;;;;;;;;;;;7.28;48.19;99243.22;4469402;32;33006;-80
2023/01/31 10:34:55;;;;;;;;;;;;;;;7.18;47.25;99240.34;4483076;32;34152;-80
2023/01/31 10:37:34;;;;;;;;;;;;;;;7.30;46.40;99222.59;4469291;32;34193;-82
2023/01/31 10:40:05;;;;;;;;;;;;;;;7.25;46.59;99212.19;4469236;32;33830;-80
2023/01/31 10:42:35;;;;;;;;;;;;;;;6.53;47.59;99217.03;4472392;31;33756;-80
2023/01/31 10:45:16;;;;;;;;;;;;;;;6.68;46.66;99222.63;4492671;31;34933;-80
2023/01/31 10:47:44;;;;;;;;;;;;;;;7.05;46.29;99233.97;4484983;31;34311;-82
2023/01/31 10:50:15;;;;;;;;;;;;;;;6.80;46.45;99220.38;4499009;31;34378;-81
2023/01/31 10:52:45;;;;;;;;;;;;;;;7.31;45.68;99232.97;4499059;31;33403;-80
2023/01/31 10:55:39;;;;;;;;;;;;;;;6.75;47.03;99214.25;4479596;32;34999;-82
2023/01/31 10:58:09;;;;;;;;;;;;;;;6.80;46.75;99199.78;4469079;32;34242;-82
2023/01/31 11:00:36;;;;;;;;;;;;;;;6.49;47.37;99217.75;4483162;32;33876;-82
2023/01/31 11:03:06;;;;;;;;;;;;;;;6.77;47.26;99199.69;4483326;32;33319;-81
2023/01/31 11:05:33;;;;;;;;;;;;;;;6.77;47.22;99196.22;4468932;32;33712;-82
2023/01/31 11:08:01;;;;;;;;;;;;;;;6.30;48.30;99216.34;4475839;31;34978;-81
2023/01/31 11:10:29;;;;;;;;;;;;;;;6.72;47.16;99206.41;4484205;31;32709;-82
2023/01/31 11:13:06;;;;;;;;;;;;;;;7.37;46.31;99196.16;4481818;32;32771;-82
2023/01/31 11:15:34;;;;;;;;;;;;;;;7.39;46.07;99214.25;4481725;31;34765;-82
2023/01/31 11:18:01;;;;;;;;;;;;;;;7.37;46.32;99216.78;4468700;32;34964;-81
2023/01/31 11:20:29;;;;;;;;;;;;;;;8.05;45.43;99209.00;4484493;31;34183;-81
2023/01/31 11:22:57;;;;;;;;;;;;;;;7.59;44.96;99207.91;4498711;31;33351;-80
2023/01/31 11:25:25;;;;;;;;;;;;;;;7.87;45.66;99211.16;4484202;31;33782;-81
2023/01/31 11:27:53;;;;;;;;;;;;;;;7.64;46.33;99208.87;4478815;31;33892;-81
2023/01/31 11:30:23;;;;;;;;;;;;;;;8.23;44.87;99212.03;4493643;31;35034;-82
2023/01/31 11:32:51;;;;;;;;;;;;;;;8.15;44.72;99207.53;4498662;31;34198;-80
2023/01/31 11:35:18;;;;;;;;;;;;;;;8.62;42.78;99195.66;4484670;31;34188;-80
2023/01/31 11:37:49;;;;;;;;;;;;;;;7.82;44.18;99176.63;4498733;31;35265;-79
2023/01/31 11:40:26;;;;;;;;;;;;;;;7.39;45.52;99222.87;4498679;31;34224;-80
2023/01/31 11:42:54;;;;;;;;;;;;;;;7.34;46.48;99215.81;4498784;31;34051;-80
2023/01/31 11:45:26;;;;;;;;;;;;;;;7.83;44.94;99219.66;4488208;31;34008;-81
2023/01/31 11:47:56;;;;;;;;;;;;;;;8.20;44.72;99198.16;4482576;32;34292;-81
2023/01/31 11:50:23;;;;;;;;;;;;;;;8.38;44.00;99203.78;4482746;32;34557;-80
2023/01/31 11:53:01;;;;;;;;;;;;;;;8.58;43.49;99191.28;4482150;31;33274;-79
2023/01/31 11:55:37;;;;;;;;;;;;;;;8.08;43.89;99193.59;4489353;31;33509;-80
2023/01/31 11:58:09;;;;;;;;;;;;;;;8.01;43.10;99192.56;4480497;31;34329;-82
2023/01/31 12:00:49;;;;;;;;;;;;;;;7.65;42.95;99207.16;4480834;32;34457;-81
2023/01/31 12:03:17;;;;;;;;;;;;;;;7.77;43.42;99194.59;4482450;31;34125;-81
2023/01/31 12:05:48;;;;;;;;;;;;;;;8.04;42.31;99187.47;4498365;31;34232;-82
2023/01/31 12:08:27;;;;;;;;;;;;;;;7.54;43.48;99183.69;4483356;32;34283;-81
2023/01/31 12:10:56;;;;;;;;;;;;;;;7.84;43.03;99187.84;4484553;31;34695;-82
2023/01/31 12:13:24;;;;;;;;;;;;;;;7.92;42.90;99191.50;4494186;31;33525;-82
2023/01/31 12:15:51;;;;;;;;;;;;;;;7.72;44.18;99191.88;4484098;32;34112;-82
2023/01/31 12:18:21;;;;;;;;;;;;;;;7.54;44.31;99186.28;4484331;32;34165;-81
2023/01/31 12:20:50;;;;;;;;;;;;;;;7.84;44.53;99187.84;4482994;32;34736;-81
2023/01/31 12:23:20;;;;;;;;;;;;;;;8.50;43.20;99185.09;4478153;32;33077;-82
2023/01/31 12:26:07;;;;;;;;;;;;;;;7.63;45.45;99199.41;4471003;32;34236;-80
2023/01/31 12:28:37;;;;;;;;;;;;;;;8.07;44.65;99207.34;4470321;32;34944;-82
2023/01/31 12:31:25;;;;;;;;;;;;;;;7.50;46.78;99207.66;4484336;32;34351;-82
2023/01/31 12:34:11;;;;;;;;;;;;;;;8.08;45.60;99196.19;4459924;31;33566;-82
2023/01/31 12:36:41;;;;;;;;;;;;;;;8.27;44.99;99208.66;4484518;32;34940;-81
2023/01/31 12:39:27;;;;;;;;;;;;;;;7.75;45.96;99219.47;4476832;32;34264;-82
2023/01/31 12:42:01;;;;;;;;;;;;;;;7.69;46.87;99215.03;4496300;31;34835;-82
2023/01/31 12:44:28;;;;;;;;;;;;;;;8.15;45.42;99215.28;4475749;31;34327;-82
2023/01/31 12:47:15;;;;;;;;;;;;;;;7.97;46.12;99215.72;4499994;31;34225;-82
2023/01/31 12:49:50;;;;;;;;;;;;;;;7.88;47.21;99233.53;4499573;31;34547;-82
2023/01/31 12:52:27;;;;;;;;;;;;;;;7.80;47.58;99241.09;4477427;32;33445;-81
2023/01/31 12:54:54;;;;;;;;;;;;;;;7.78;47.79;99245.34;4498977;31;34268;-82
2023/01/31 12:57:29;;;;;;;;;;;;;;;7.83;47.80;99248.91;4495600;31;34844;-81
2023/01/31 13:00:15;;;;;;;;;;;;;;;8.23;46.71;99250.75;4485893;31;34363;-83
2023/01/31 13:02:44;;;;;;;;;;;;;;;8.27;46.61;99244.81;4493775;31;34921;-79
2023/01/31 13:05:31;;;;;;;;;;;;;;;7.79;48.26;99260.88;4483004;32;34308;-81
2023/01/31 13:08:02;;;;;;;;;;;;;;;7.75;48.36;99265.91;4483176;32;34246;-80
2023/01/31 13:10:36;;;;;;;;;;;;;;;7.50;47.58;99257.56;4484055;32;34418;-81
2023/01/31 13:13:05;;;;;;;;;;;;;;;7.68;47.28;99256.28;4470022;32;34410;-83
2023/01/31 13:15:51;;;;;;;;;;;;;;;7.18;48.04;99264.41;4469758;31;34114;-82
2023/01/31 13:18:18;;;;;;;;;;;;;;;7.68;47.47;99264.88;4483807;31;33610;-80
2023/01/31 13:20:47;;;;;;;;;;;;;;;7.97;46.33;99257.88;4481844;31;34472;-82